Stuyvesant — WNFX — position and weather

sailwx.info

Track history (hours):
 
Tides and Currents Weather Stations Pressure Air Temp Water Temp Dewpoint Dewpoint Depression Visibility Wind Speed Wind Dir Waves Ship Positions

Stuyvesant

Owner: THE DUTRA GROUP, SAN RAFAEL, CA. More information available from US FCC via Universal Licensing System and Coast Guard Vessel Documentation Center.

Last reported at 2016-Apr-25 20:16 UTC. Time now 2016-Apr-29 08:15 UTC.
Position N 25°46' W 079°55'.

Length 122 m; draft 10 m.

Type: Cargo ship. MMSI: 368098000.

Date/timePositionNaut miles runAvg speedWind from/ knotsBaromVisibWave heightAir tempDewpointWater temp
2016-Apr-25 20:16N 25°46' W 079°55'710.0
2016-Apr-25 19:33N 25°53' W 079°54'1010.3
2016-Apr-25 18:33N 26°03' W 079°53'1010.3
2016-Apr-25 17:33N 26°13' W 079°51'1110.7
2016-Apr-25 16:33N 26°24' W 079°50'1111.0
2016-Apr-25 15:33N 26°35' W 079°48'1310.4
2016-Apr-25 14:19N 26°47' W 079°46'  
2016-Apr-21 21:14N 40°28' W 073°46'710.0
2016-Apr-21 20:33N 40°29' W 073°55'1110.6
2016-Apr-21 19:33N 40°38' W 074°03'3 2.6
2016-Apr-21 18:33N 40°40' W 074°02'0 0.0
2016-Apr-21 17:33N 40°40' W 074°02'0 0.0
2016-Apr-21 16:34N 40°40' W 074°02'0 0.1
2016-Apr-21 15:33N 40°40' W 074°02'9 8.8
2016-Apr-21 14:31N 40°31' W 073°60'  
2016-Apr-19 02:27N 40°46' W 072°38'1 1.4
2016-Apr-19 01:32N 40°46' W 072°36'2 1.5
2016-Apr-19 00:21N 40°46' W 072°38'1110.8
2016-Apr-18 23:22N 40°42' W 072°51'11 0.7
2016-Apr-18 07:13N 40°46' W 072°38'1012.7
2016-Apr-18 06:24N 40°43' W 072°51'  
Track history (hours):
 
Tides and Currents Weather Stations Pressure Air Temp Water Temp Dewpoint Dewpoint Depression Visibility Wind Speed Wind Dir Waves Ship Positions

Stuyvesant

Owner: THE DUTRA GROUP, SAN RAFAEL, CA. More information available from US FCC via Universal Licensing System and Coast Guard Vessel Documentation Center.

Last reported at 2016-Apr-25 20:16 UTC. Time now 2016-Apr-29 08:15 UTC.
Position N 25°46' W 079°55'.

Length 122 m; draft 10 m.

Type: Cargo ship. MMSI: 368098000.

Date/timePositionNaut miles runAvg speedWind from/ knotsBaromVisibWave heightAir tempDewpointWater temp
2016-Apr-25 20:16N 25°46' W 079°55'710.0
2016-Apr-25 19:33N 25°53' W 079°54'1010.3
2016-Apr-25 18:33N 26°03' W 079°53'1010.3
2016-Apr-25 17:33N 26°13' W 079°51'1110.7
2016-Apr-25 16:33N 26°24' W 079°50'1111.0
2016-Apr-25 15:33N 26°35' W 079°48'1310.4
2016-Apr-25 14:19N 26°47' W 079°46'  
2016-Apr-21 21:14N 40°28' W 073°46'710.0
2016-Apr-21 20:33N 40°29' W 073°55'1110.6
2016-Apr-21 19:33N 40°38' W 074°03'3 2.6
2016-Apr-21 18:33N 40°40' W 074°02'0 0.0
2016-Apr-21 17:33N 40°40' W 074°02'0 0.0
2016-Apr-21 16:34N 40°40' W 074°02'0 0.1
2016-Apr-21 15:33N 40°40' W 074°02'9 8.8
2016-Apr-21 14:31N 40°31' W 073°60'  
2016-Apr-19 02:27N 40°46' W 072°38'1 1.4
2016-Apr-19 01:32N 40°46' W 072°36'2 1.5
2016-Apr-19 00:21N 40°46' W 072°38'1110.8
2016-Apr-18 23:22N 40°42' W 072°51'11 0.7
2016-Apr-18 07:13N 40°46' W 072°38'1012.7
2016-Apr-18 06:24N 40°43' W 072°51'  

Dump ship's entire track history